Terminal Aerodrome Forecast
Issued by NWS

Home | Current Version | Previous Version | Text Only | Print | Product List | Glossary On
Versions: 1 2 3 4 5 6 7 8 9 10 11 12 13 14 15 16 17 18 19 20 21 22 23
000
FTUS44 KLIX 311700
TAFHDC
TAF
KHDC 311735Z 3118/0118 12007KT P6SM SCT140
     FM010500 10006KT P6SM BKN050
     FM011000 12005KT P6SM OVC025
     FM011600 16006KT P6SM VCSH OVC030=

USA.gov is the U.S. government's official web portal to all federal, state and local government web resources and services.